sensor_id;sensor_type;location;lat;lon;timestamp;pressure;altitude;pressure_sealevel;temperature;humidity
63552;BME280;49698;48.072;7.800;2023-02-02T00:01:23;100466.22;;;5.11;76.37
63552;BME280;49698;48.072;7.800;2023-02-02T00:03:51;100464.34;;;5.12;76.19
63552;BME280;49698;48.072;7.800;2023-02-02T00:06:24;100459.22;;;5.10;76.49
63552;BME280;49698;48.072;7.800;2023-02-02T00:08:55;100452.88;;;5.11;76.21
63552;BME280;49698;48.072;7.800;2023-02-02T00:11:23;100449.63;;;5.09;76.62
63552;BME280;49698;48.072;7.800;2023-02-02T00:13:53;100452.28;;;5.09;76.70
63552;BME280;49698;48.072;7.800;2023-02-02T00:16:34;100445.31;;;5.08;76.84
63552;BME280;49698;48.072;7.800;2023-02-02T00:19:04;100455.19;;;5.08;76.56
63552;BME280;49698;48.072;7.800;2023-02-02T00:21:33;100451.09;;;5.05;76.94
63552;BME280;49698;48.072;7.800;2023-02-02T00:24:00;100445.53;;;5.07;76.92
63552;BME280;49698;48.072;7.800;2023-02-02T00:26:28;100457.22;;;5.06;76.77
63552;BME280;49698;48.072;7.800;2023-02-02T00:28:58;100464.84;;;5.02;77.26
63552;BME280;49698;48.072;7.800;2023-02-02T00:31:27;100464.84;;;5.02;77.10
63552;BME280;49698;48.072;7.800;2023-02-02T00:33:55;100466.94;;;5.00;77.28
63552;BME280;49698;48.072;7.800;2023-02-02T00:36:23;100474.94;;;5.00;77.39
63552;BME280;49698;48.072;7.800;2023-02-02T00:38:51;100458.13;;;5.00;77.78
63552;BME280;49698;48.072;7.800;2023-02-02T00:41:19;100467.38;;;4.97;77.63
63552;BME280;49698;48.072;7.800;2023-02-02T00:43:47;100472.09;;;4.95;77.98
63552;BME280;49698;48.072;7.800;2023-02-02T00:46:39;100476.41;;;4.96;77.93
63552;BME280;49698;48.072;7.800;2023-02-02T00:49:07;100479.69;;;4.91;78.04
63552;BME280;49698;48.072;7.800;2023-02-02T00:51:36;100476.69;;;4.88;78.23
63552;BME280;49698;48.072;7.800;2023-02-02T00:54:04;100470.13;;;4.84;78.59
63552;BME280;49698;48.072;7.800;2023-02-02T00:56:32;100475.47;;;4.84;79.00
63552;BME280;49698;48.072;7.800;2023-02-02T00:59:00;100475.94;;;4.81;79.14
63552;BME280;49698;48.072;7.800;2023-02-02T01:01:28;100467.31;;;4.79;79.11
63552;BME280;49698;48.072;7.800;2023-02-02T01:03:57;100467.75;;;4.76;79.30
63552;BME280;49698;48.072;7.800;2023-02-02T01:06:25;100474.34;;;4.73;79.65
63552;BME280;49698;48.072;7.800;2023-02-02T01:08:54;100464.72;;;4.72;79.69
63552;BME280;49698;48.072;7.800;2023-02-02T01:11:22;100461.69;;;4.69;80.05
63552;BME280;49698;48.072;7.800;2023-02-02T01:13:52;100472.53;;;4.67;80.12
63552;BME280;49698;48.072;7.800;2023-02-02T01:16:20;100478.69;;;4.68;79.96
63552;BME280;49698;48.072;7.800;2023-02-02T01:18:49;100479.72;;;4.66;80.38
63552;BME280;49698;48.072;7.800;2023-02-02T01:21:19;100485.06;;;4.66;80.25
63552;BME280;49698;48.072;7.800;2023-02-02T01:23:47;100483.44;;;4.65;80.38
63552;BME280;49698;48.072;7.800;2023-02-02T01:26:16;100485.06;;;4.66;80.25
63552;BME280;49698;48.072;7.800;2023-02-02T01:28:44;100488.75;;;4.65;80.42
63552;BME280;49698;48.072;7.800;2023-02-02T01:31:14;100490.59;;;4.65;80.45
63552;BME280;49698;48.072;7.800;2023-02-02T01:33:44;100483.44;;;4.65;80.60
63552;BME280;49698;48.072;7.800;2023-02-02T01:36:14;100484.25;;;4.66;80.71
63552;BME280;49698;48.072;7.800;2023-02-02T01:38:45;100472.78;;;4.65;80.64
63552;BME280;49698;48.072;7.800;2023-02-02T01:41:14;100453.53;;;4.63;80.88
63552;BME280;49698;48.072;7.800;2023-02-02T01:43:52;100462.56;;;4.62;80.98
63552;BME280;49698;48.072;7.800;2023-02-02T01:46:22;100466.25;;;4.61;81.18
63552;BME280;49698;48.072;7.800;2023-02-02T01:48:53;100462.31;;;4.64;80.97
63552;BME280;49698;48.072;7.800;2023-02-02T01:51:24;100467.88;;;4.62;81.16
63552;BME280;49698;48.072;7.800;2023-02-02T01:53:57;100465.22;;;4.62;81.42
63552;BME280;49698;48.072;7.800;2023-02-02T01:56:31;100472.38;;;4.62;81.27
63552;BME280;49698;48.072;7.800;2023-02-02T01:59:01;100481.78;;;4.64;81.38
63552;BME280;49698;48.072;7.800;2023-02-02T02:01:29;100480.75;;;4.65;81.22
63552;BME280;49698;48.072;7.800;2023-02-02T02:03:58;100478.09;;;4.65;81.44
63552;BME280;49698;48.072;7.800;2023-02-02T02:06:27;100485.84;;;4.67;81.45
63552;BME280;49698;48.072;7.800;2023-02-02T02:09:00;100489.56;;;4.66;81.43
63552;BME280;49698;48.072;7.800;2023-02-02T02:11:29;100487.72;;;4.66;81.47
63552;BME280;49698;48.072;7.800;2023-02-02T02:13:59;100479.72;;;4.66;81.41
63552;BME280;49698;48.072;7.800;2023-02-02T02:16:54;100468.03;;;4.68;81.14
63552;BME280;49698;48.072;7.800;2023-02-02T02:19:46;100471.72;;;4.66;81.33
63552;BME280;49698;48.072;7.800;2023-02-02T02:22:47;100478.69;;;4.68;81.45
63552;BME280;49698;48.072;7.800;2023-02-02T02:25:52;100478.69;;;4.68;81.49
63552;BME280;49698;48.072;7.800;2023-02-02T02:29:17;100477.50;;;4.63;81.73
63552;BME280;49698;48.072;7.800;2023-02-02T02:31:59;100480.16;;;4.63;81.71
63552;BME280;49698;48.072;7.800;2023-02-02T02:34:51;100474.81;;;4.63;81.83
63552;BME280;49698;48.072;7.800;2023-02-02T02:37:29;100463.13;;;4.64;81.92
63552;BME280;49698;48.072;7.800;2023-02-02T02:40:03;100459.88;;;4.62;82.06
63552;BME280;49698;48.072;7.800;2023-02-02T02:42:38;100464.97;;;4.64;82.20
63552;BME280;49698;48.072;7.800;2023-02-02T02:45:09;100467.06;;;4.62;82.09
63552;BME280;49698;48.072;7.800;2023-02-02T02:47:41;100463.59;;;4.61;82.02
63552;BME280;49698;48.072;7.800;2023-02-02T02:50:10;100467.06;;;4.62;82.19
63552;BME280;49698;48.072;7.800;2023-02-02T02:52:39;100462.56;;;4.62;82.11
63552;BME280;49698;48.072;7.800;2023-02-02T02:55:09;100462.56;;;4.62;82.23
63552;BME280;49698;48.072;7.800;2023-02-02T02:57:48;100464.78;;;4.65;82.13
63552;BME280;49698;48.072;7.800;2023-02-02T03:00:32;100465.22;;;4.62;82.37
63552;BME280;49698;48.072;7.800;2023-02-02T03:03:07;100459.88;;;4.62;82.41
63552;BME280;49698;48.072;7.800;2023-02-02T03:05:48;100459.28;;;4.60;82.64
63552;BME280;49698;48.072;7.800;2023-02-02T03:08:21;100471.59;;;4.61;82.54
63552;BME280;49698;48.072;7.800;2023-02-02T03:10:51;100460.94;;;4.61;82.65
63552;BME280;49698;48.072;7.800;2023-02-02T03:13:19;100472.59;;;4.60;82.91
63552;BME280;49698;48.072;7.800;2023-02-02T03:15:47;100480.56;;;4.60;82.88
63552;BME280;49698;48.072;7.800;2023-02-02T03:18:18;100477.34;;;4.58;82.92
63552;BME280;49698;48.072;7.800;2023-02-02T03:20:48;100476.53;;;4.58;82.93
63552;BME280;49698;48.072;7.800;2023-02-02T03:23:15;100482.66;;;4.58;82.99
63552;BME280;49698;48.072;7.800;2023-02-02T03:25:44;100485.31;;;4.58;82.99
63552;BME280;49698;48.072;7.800;2023-02-02T03:28:13;100486.34;;;4.57;83.20
63552;BME280;49698;48.072;7.800;2023-02-02T03:30:42;100482.66;;;4.58;83.25
63552;BME280;49698;48.072;7.800;2023-02-02T03:33:12;100486.34;;;4.57;83.32
63552;BME280;49698;48.072;7.800;2023-02-02T03:35:42;100480.00;;;4.58;83.43
63552;BME280;49698;48.072;7.800;2023-02-02T03:38:10;100483.69;;;4.57;83.47
63552;BME280;49698;48.072;7.800;2023-02-02T03:40:38;100482.84;;;4.57;83.50
63552;BME280;49698;48.072;7.800;2023-02-02T03:43:07;100489.84;;;4.58;83.28
63552;BME280;49698;48.072;7.800;2023-02-02T03:45:35;100481.63;;;4.59;83.45
63552;BME280;49698;48.072;7.800;2023-02-02T03:48:05;100492.28;;;4.59;83.35
63552;BME280;49698;48.072;7.800;2023-02-02T03:50:33;100485.31;;;4.58;83.47
63552;BME280;49698;48.072;7.800;2023-02-02T03:53:02;100493.31;;;4.58;83.53
63552;BME280;49698;48.072;7.800;2023-02-02T03:55:30;100477.34;;;4.58;83.49
63552;BME280;49698;48.072;7.800;2023-02-02T03:57:58;100477.34;;;4.58;83.68
63552;BME280;49698;48.072;7.800;2023-02-02T04:00:26;100485.91;;;4.60;83.53
63552;BME280;49698;48.072;7.800;2023-02-02T04:02:54;100491.22;;;4.60;83.69
63552;BME280;49698;48.072;7.800;2023-02-02T04:05:22;100490.41;;;4.60;83.75
63552;BME280;49698;48.072;7.800;2023-02-02T04:07:50;100492.88;;;4.61;83.61
63552;BME280;49698;48.072;7.800;2023-02-02T04:10:19;100489.19;;;4.62;83.62
63552;BME280;49698;48.072;7.800;2023-02-02T04:12:47;100486.53;;;4.62;83.58
63552;BME280;49698;48.072;7.800;2023-02-02T04:15:16;100490.00;;;4.63;83.61
63552;BME280;49698;48.072;7.800;2023-02-02T04:17:44;100493.47;;;4.63;83.52
63552;BME280;49698;48.072;7.800;2023-02-02T04:20:12;100480.97;;;4.64;83.32
63552;BME280;49698;48.072;7.800;2023-02-02T04:22:40;100479.13;;;4.64;83.37
63552;BME280;49698;48.072;7.800;2023-02-02T04:25:08;100480.75;;;4.65;83.36
63552;BME280;49698;48.072;7.800;2023-02-02T04:27:37;100483.63;;;4.64;83.50
63552;BME280;49698;48.072;7.800;2023-02-02T04:30:06;100485.06;;;4.66;83.52
63552;BME280;49698;48.072;7.800;2023-02-02T04:32:34;100493.03;;;4.66;83.47
63552;BME280;49698;48.072;7.800;2023-02-02T04:35:03;100490.38;;;4.66;83.62
63552;BME280;49698;48.072;7.800;2023-02-02T04:37:31;100478.69;;;4.68;83.58
63552;BME280;49698;48.072;7.800;2023-02-02T04:39:59;100488.75;;;4.65;83.60
63552;BME280;49698;48.072;7.800;2023-02-02T04:42:27;100491.19;;;4.67;83.63
63552;BME280;49698;48.072;7.800;2023-02-02T04:44:59;100495.69;;;4.66;83.62
63552;BME280;49698;48.072;7.800;2023-02-02T04:47:27;100492.00;;;4.68;83.61
63552;BME280;49698;48.072;7.800;2023-02-02T04:49:54;100487.72;;;4.66;84.13
63552;BME280;49698;48.072;7.800;2023-02-02T04:52:22;100491.19;;;4.67;83.79
63552;BME280;49698;48.072;7.800;2023-02-02T04:54:50;100495.69;;;4.66;84.04
63552;BME280;49698;48.072;7.800;2023-02-02T04:57:18;100490.38;;;4.66;84.11
63552;BME280;49698;48.072;7.800;2023-02-02T04:59:46;100497.31;;;4.68;84.12
63552;BME280;49698;48.072;7.800;2023-02-02T05:02:15;100498.97;;;4.69;84.12
63552;BME280;49698;48.072;7.800;2023-02-02T05:04:43;100496.47;;;4.74;83.77
63552;BME280;49698;48.072;7.800;2023-02-02T05:07:12;100498.53;;;4.72;83.98
63552;BME280;49698;48.072;7.800;2023-02-02T05:09:40;100495.84;;;4.72;83.90
63552;BME280;49698;48.072;7.800;2023-02-02T05:12:08;100491.34;;;4.72;83.76
63552;BME280;49698;48.072;7.800;2023-02-02T05:14:36;100491.34;;;4.72;83.74
63552;BME280;49698;48.072;7.800;2023-02-02T05:17:04;100485.00;;;4.73;83.88
63552;BME280;49698;48.072;7.800;2023-02-02T05:19:33;100486.41;;;4.76;83.85
63552;BME280;49698;48.072;7.800;2023-02-02T05:22:01;100477.81;;;4.74;83.87
63552;BME280;49698;48.072;7.800;2023-02-02T05:24:29;100470.66;;;4.74;83.42
63552;BME280;49698;48.072;7.800;2023-02-02T05:26:57;100481.31;;;4.74;83.74
63552;BME280;49698;48.072;7.800;2023-02-02T05:29:26;100474.34;;;4.73;83.94
63552;BME280;49698;48.072;7.800;2023-02-02T05:31:54;100480.50;;;4.74;83.88
63552;BME280;49698;48.072;7.800;2023-02-02T05:34:22;100484.78;;;4.75;83.45
63552;BME280;49698;48.072;7.800;2023-02-02T05:36:51;100497.06;;;4.76;83.60
63552;BME280;49698;48.072;7.800;2023-02-02T05:39:19;100492.75;;;4.75;83.76
63552;BME280;49698;48.072;7.800;2023-02-02T05:41:47;100494.38;;;4.76;83.62
63552;BME280;49698;48.072;7.800;2023-02-02T05:44:15;100483.72;;;4.76;83.51
63552;BME280;49698;48.072;7.800;2023-02-02T05:46:43;100483.31;;;4.79;83.50
63552;BME280;49698;48.072;7.800;2023-02-02T05:49:12;100485.16;;;4.78;83.44
63552;BME280;49698;48.072;7.800;2023-02-02T05:51:42;100476.34;;;4.78;83.26
63552;BME280;49698;48.072;7.800;2023-02-02T05:54:13;100483.31;;;4.79;83.66
63552;BME280;49698;48.072;7.800;2023-02-02T05:56:45;100489.69;;;4.78;83.80
63552;BME280;49698;48.072;7.800;2023-02-02T05:59:13;100499.28;;;4.79;83.43
63552;BME280;49698;48.072;7.800;2023-02-02T06:01:43;100506.25;;;4.80;83.46
63552;BME280;49698;48.072;7.800;2023-02-02T06:04:11;100503.56;;;4.80;83.19
63552;BME280;49698;48.072;7.800;2023-02-02T06:06:39;100502.56;;;4.81;83.30
63552;BME280;49698;48.072;7.800;2023-02-02T06:09:07;100502.56;;;4.81;83.29
63552;BME280;49698;48.072;7.800;2023-02-02T06:11:37;100516.88;;;4.80;83.22
63552;BME280;49698;48.072;7.800;2023-02-02T06:14:06;100512.41;;;4.80;83.19
63552;BME280;49698;48.072;7.800;2023-02-02T06:16:34;100518.53;;;4.81;83.52
63552;BME280;49698;48.072;7.800;2023-02-02T06:19:02;100516.88;;;4.80;83.58
63552;BME280;49698;48.072;7.800;2023-02-02T06:21:30;100518.53;;;4.81;83.54
63552;BME280;49698;48.072;7.800;2023-02-02T06:23:58;100518.75;;;4.79;83.70
63552;BME280;49698;48.072;7.800;2023-02-02T06:26:27;100519.56;;;4.80;83.44
63552;BME280;49698;48.072;7.800;2023-02-02T06:28:57;100515.88;;;4.81;83.59
63552;BME280;49698;48.072;7.800;2023-02-02T06:31:25;100522.03;;;4.81;83.47
63552;BME280;49698;48.072;7.800;2023-02-02T06:33:55;100517.28;;;4.83;83.31
63552;BME280;49698;48.072;7.800;2023-02-02T06:36:25;100519.13;;;4.83;83.29
63552;BME280;49698;48.072;7.800;2023-02-02T06:38:55;100512.75;;;4.84;83.42
63552;BME280;49698;48.072;7.800;2023-02-02T06:41:23;100516.03;;;4.86;83.44
63552;BME280;49698;48.072;7.800;2023-02-02T06:43:51;100511.53;;;4.86;83.68
63552;BME280;49698;48.072;7.800;2023-02-02T06:46:20;100518.47;;;4.87;83.29
63552;BME280;49698;48.072;7.800;2023-02-02T06:48:48;100520.31;;;4.87;83.60
63552;BME280;49698;48.072;7.800;2023-02-02T06:51:16;100523.00;;;4.87;83.78
63552;BME280;49698;48.072;7.800;2023-02-02T06:53:46;100529.97;;;4.88;83.52
63552;BME280;49698;48.072;7.800;2023-02-02T06:56:15;100536.91;;;4.89;83.71
63552;BME280;49698;48.072;7.800;2023-02-02T06:58:43;100538.53;;;4.90;83.53
63552;BME280;49698;48.072;7.800;2023-02-02T07:01:12;100542.25;;;4.89;83.90
63552;BME280;49698;48.072;7.800;2023-02-02T07:03:42;100545.50;;;4.91;83.95
63552;BME280;49698;48.072;7.800;2023-02-02T07:06:12;100543.88;;;4.90;83.76
63552;BME280;49698;48.072;7.800;2023-02-02T07:08:40;100563.56;;;4.89;83.85
63552;BME280;49698;48.072;7.800;2023-02-02T07:11:09;100561.47;;;4.91;83.71
63552;BME280;49698;48.072;7.800;2023-02-02T07:13:37;100574.38;;;4.94;83.67
63552;BME280;49698;48.072;7.800;2023-02-02T07:16:06;100564.75;;;4.93;83.43
63552;BME280;49698;48.072;7.800;2023-02-02T07:18:36;100563.94;;;4.93;83.81
63552;BME280;49698;48.072;7.800;2023-02-02T07:21:05;100562.69;;;4.95;83.59
63552;BME280;49698;48.072;7.800;2023-02-02T07:23:33;100575.00;;;4.96;83.74
63552;BME280;49698;48.072;7.800;2023-02-02T07:26:02;100577.03;;;4.94;83.79
63552;BME280;49698;48.072;7.800;2023-02-02T07:28:31;100569.03;;;4.94;83.75
63552;BME280;49698;48.072;7.800;2023-02-02T07:30:59;100566.59;;;4.93;83.95
63552;BME280;49698;48.072;7.800;2023-02-02T07:33:28;100578.66;;;4.95;83.73
63552;BME280;49698;48.072;7.800;2023-02-02T07:35:56;100576.00;;;4.95;84.17
63552;BME280;49698;48.072;7.800;2023-02-02T07:38:25;100581.13;;;4.97;83.68
63552;BME280;49698;48.072;7.800;2023-02-02T07:40:53;100588.09;;;4.98;83.84
63552;BME280;49698;48.072;7.800;2023-02-02T07:43:21;100580.31;;;4.96;83.76
63552;BME280;49698;48.072;7.800;2023-02-02T07:45:49;100588.91;;;4.98;83.88
63552;BME280;49698;48.072;7.800;2023-02-02T07:48:17;100577.19;;;4.99;83.60
63552;BME280;49698;48.072;7.800;2023-02-02T07:50:44;100569.00;;;5.01;83.46
63552;BME280;49698;48.072;7.800;2023-02-02T07:53:12;100564.47;;;5.01;83.78
63552;BME280;49698;48.072;7.800;2023-02-02T07:55:42;100566.09;;;5.02;83.57
63552;BME280;49698;48.072;7.800;2023-02-02T07:58:10;100565.06;;;5.03;83.78
63552;BME280;49698;48.072;7.800;2023-02-02T08:00:38;100554.78;;;5.07;83.69
63552;BME280;49698;48.072;7.800;2023-02-02T08:03:06;100559.69;;;5.10;83.51
63552;BME280;49698;48.072;7.800;2023-02-02T08:05:34;100570.72;;;5.13;83.40
63552;BME280;49698;48.072;7.800;2023-02-02T08:08:02;100566.59;;;5.18;83.33
63552;BME280;49698;48.072;7.800;2023-02-02T08:10:30;100560.84;;;5.21;82.95
63552;BME280;49698;48.072;7.800;2023-02-02T08:12:59;100563.28;;;5.22;83.06
63552;BME280;49698;48.072;7.800;2023-02-02T08:15:27;100565.13;;;5.22;83.26
63552;BME280;49698;48.072;7.800;2023-02-02T08:17:55;100565.72;;;5.24;82.94
63552;BME280;49698;48.072;7.800;2023-02-02T08:20:24;100559.59;;;5.23;82.80
63552;BME280;49698;48.072;7.800;2023-02-02T08:22:52;100555.88;;;5.24;82.95
63552;BME280;49698;48.072;7.800;2023-02-02T08:25:20;100560.56;;;5.29;82.84
63552;BME280;49698;48.072;7.800;2023-02-02T08:27:52;100542.03;;;5.34;82.76
63552;BME280;49698;48.072;7.800;2023-02-02T08:30:21;100539.31;;;5.40;82.78
63552;BME280;49698;48.072;7.800;2023-02-02T08:32:49;100550.28;;;5.51;82.40
63552;BME280;49698;48.072;7.800;2023-02-02T08:35:17;100546.53;;;5.58;81.96
63552;BME280;49698;48.072;7.800;2023-02-02T08:37:46;100551.41;;;5.61;82.39
63552;BME280;49698;48.072;7.800;2023-02-02T08:40:14;100544.44;;;5.60;82.19
63552;BME280;49698;48.072;7.800;2023-02-02T08:42:42;100546.09;;;5.61;82.39
63552;BME280;49698;48.072;7.800;2023-02-02T08:45:11;100552.59;;;5.66;82.56
63552;BME280;49698;48.072;7.800;2023-02-02T08:47:41;100559.56;;;5.67;82.14
63552;BME280;49698;48.072;7.800;2023-02-02T08:50:09;100561.19;;;5.68;82.46
63552;BME280;49698;48.072;7.800;2023-02-02T08:52:37;100554.59;;;5.70;82.47
63552;BME280;49698;48.072;7.800;2023-02-02T08:55:06;100558.22;;;5.76;81.86
63552;BME280;49698;48.072;7.800;2023-02-02T08:57:34;100572.75;;;5.80;81.86
63552;BME280;49698;48.072;7.800;2023-02-02T09:00:03;100586.47;;;5.83;81.90
63552;BME280;49698;48.072;7.800;2023-02-02T09:02:32;100586.47;;;5.83;81.84
63552;BME280;49698;48.072;7.800;2023-02-02T09:05:01;100584.59;;;5.84;81.64
63552;BME280;49698;48.072;7.800;2023-02-02T09:07:30;100589.50;;;5.87;81.92
63552;BME280;49698;48.072;7.800;2023-02-02T09:09:58;100595.44;;;5.89;81.38
63552;BME280;49698;48.072;7.800;2023-02-02T09:12:26;100600.78;;;5.89;81.51
63552;BME280;49698;48.072;7.800;2023-02-02T09:14:54;100608.16;;;5.94;81.43
63552;BME280;49698;48.072;7.800;2023-02-02T09:17:22;100598.66;;;5.98;81.18
63552;BME280;49698;48.072;7.800;2023-02-02T09:19:50;100604.00;;;5.98;80.83
63552;BME280;49698;48.072;7.800;2023-02-02T09:22:19;100623.47;;;5.98;81.03
63552;BME280;49698;48.072;7.800;2023-02-02T09:24:47;100629.88;;;5.97;81.30
63552;BME280;49698;48.072;7.800;2023-02-02T09:27:15;100627.41;;;5.96;80.92
63552;BME280;49698;48.072;7.800;2023-02-02T09:29:43;100617.34;;;5.98;81.32
63552;BME280;49698;48.072;7.800;2023-02-02T09:32:11;100628.38;;;6.01;81.23
63552;BME280;49698;48.072;7.800;2023-02-02T09:34:39;100623.19;;;6.06;80.77
63552;BME280;49698;48.072;7.800;2023-02-02T09:37:07;100635.03;;;6.10;80.50
63552;BME280;49698;48.072;7.800;2023-02-02T09:39:36;100644.69;;;6.11;80.65
63552;BME280;49698;48.072;7.800;2023-02-02T09:45:06;100656.25;;;6.05;81.03
63552;BME280;49698;48.072;7.800;2023-02-02T09:47:56;100653.59;;;6.05;81.08
63552;BME280;49698;48.072;7.800;2023-02-02T09:50:38;100658.94;;;6.05;80.87
63552;BME280;49698;48.072;7.800;2023-02-02T09:53:14;100657.06;;;6.06;80.92
63552;BME280;49698;48.072;7.800;2023-02-02T09:55:47;100666.69;;;6.07;81.13
63552;BME280;49698;48.072;7.800;2023-02-02T09:58:19;100665.06;;;6.06;81.37
63552;BME280;49698;48.072;7.800;2023-02-02T10:00:53;100679.84;;;6.08;81.56
63552;BME280;49698;48.072;7.800;2023-02-02T10:03:29;100680.66;;;6.09;81.47
63552;BME280;49698;48.072;7.800;2023-02-02T10:06:04;100681.03;;;6.12;81.27
63552;BME280;49698;48.072;7.800;2023-02-02T10:08:37;100688.00;;;6.13;81.18
63552;BME280;49698;48.072;7.800;2023-02-02T10:11:26;100684.88;;;6.17;80.87
63552;BME280;49698;48.072;7.800;2023-02-02T10:13:59;100687.13;;;6.20;80.89
63552;BME280;49698;48.072;7.800;2023-02-02T10:16:28;100677.47;;;6.19;80.83
63552;BME280;49698;48.072;7.800;2023-02-02T10:19:00;100676.44;;;6.20;80.71
63552;BME280;49698;48.072;7.800;2023-02-02T10:21:34;100666.94;;;6.24;81.05
63552;BME280;49698;48.072;7.800;2023-02-02T10:24:14;100659.06;;;6.29;81.34
63552;BME280;49698;48.072;7.800;2023-02-02T10:26:47;100669.31;;;6.32;81.11
63552;BME280;49698;48.072;7.800;2023-02-02T10:29:17;100656.91;;;6.37;81.11
63552;BME280;49698;48.072;7.800;2023-02-02T10:31:54;100646.59;;;6.41;81.31
63552;BME280;49698;48.072;7.800;2023-02-02T10:34:30;100654.97;;;6.45;81.27
63552;BME280;49698;48.072;7.800;2023-02-02T10:37:09;100651.41;;;6.51;80.98
63552;BME280;49698;48.072;7.800;2023-02-02T10:39:49;100658.16;;;6.53;80.92
63552;BME280;49698;48.072;7.800;2023-02-02T10:42:31;100664.53;;;6.52;80.81
63552;BME280;49698;48.072;7.800;2023-02-02T10:45:03;100662.47;;;6.54;80.57
63552;BME280;49698;48.072;7.800;2023-02-02T10:47:36;100650.13;;;6.53;80.70
63552;BME280;49698;48.072;7.800;2023-02-02T10:50:15;100653.47;;;6.49;80.71
63552;BME280;49698;48.072;7.800;2023-02-02T10:52:46;100656.84;;;6.44;80.70
63552;BME280;49698;48.072;7.800;2023-02-02T10:55:21;100662.63;;;6.41;80.94
63552;BME280;49698;48.072;7.800;2023-02-02T10:58:00;100672.72;;;6.39;81.09
63552;BME280;49698;48.072;7.800;2023-02-02T11:00:32;100670.06;;;6.39;81.24
63552;BME280;49698;48.072;7.800;2023-02-02T11:03:02;100668.88;;;6.35;80.99
63552;BME280;49698;48.072;7.800;2023-02-02T11:05:32;100681.63;;;6.33;81.35
63552;BME280;49698;48.072;7.800;2023-02-02T11:08:20;100682.66;;;6.32;81.41
63552;BME280;49698;48.072;7.800;2023-02-02T11:10:51;100682.66;;;6.32;81.12
63552;BME280;49698;48.072;7.800;2023-02-02T11:13:26;100668.50;;;6.31;81.03
63552;BME280;49698;48.072;7.800;2023-02-02T11:16:17;100660.88;;;6.35;81.32
63552;BME280;49698;48.072;7.800;2023-02-02T11:18:45;100664.25;;;6.42;80.91
63552;BME280;49698;48.072;7.800;2023-02-02T11:21:18;100647.34;;;6.48;80.77
63552;BME280;49698;48.072;7.800;2023-02-02T11:23:52;100648.06;;;6.55;80.50
63552;BME280;49698;48.072;7.800;2023-02-02T11:26:21;100635.28;;;6.57;80.33
63552;BME280;49698;48.072;7.800;2023-02-02T11:28:53;100640.19;;;6.60;80.43
63552;BME280;49698;48.072;7.800;2023-02-02T11:31:33;100631.94;;;6.62;80.16
63552;BME280;49698;48.072;7.800;2023-02-02T11:34:14;100622.91;;;6.63;80.24
63552;BME280;49698;48.072;7.800;2023-02-02T11:37:08;100635.81;;;6.66;79.96
63552;BME280;49698;48.072;7.800;2023-02-02T11:39:38;100641.97;;;6.67;79.97
63552;BME280;49698;48.072;7.800;2023-02-02T11:42:10;100641.34;;;6.65;79.89
63552;BME280;49698;48.072;7.800;2023-02-02T11:44:45;100648.81;;;6.63;79.62
63552;BME280;49698;48.072;7.800;2023-02-02T11:47:18;100643.47;;;6.63;79.92
63552;BME280;49698;48.072;7.800;2023-02-02T11:49:47;100640.78;;;6.63;79.63
63552;BME280;49698;48.072;7.800;2023-02-02T11:52:18;100645.06;;;6.64;79.66
63552;BME280;49698;48.072;7.800;2023-02-02T11:54:51;100642.63;;;6.62;79.42
63552;BME280;49698;48.072;7.800;2023-02-02T11:57:22;100642.84;;;6.60;79.75
63552;BME280;49698;48.072;7.800;2023-02-02T12:00:05;100645.53;;;6.60;79.33
63552;BME280;49698;48.072;7.800;2023-02-02T12:02:33;100654.78;;;6.58;79.55
63552;BME280;49698;48.072;7.800;2023-02-02T12:07:58;100661.88;;;6.52;79.59
63552;BME280;49698;48.072;7.800;2023-02-02T12:10:30;100659.19;;;6.52;79.41
63552;BME280;49698;48.072;7.800;2023-02-02T12:13:06;100651.41;;;6.51;79.51
63552;BME280;49698;48.072;7.800;2023-02-02T12:15:46;100653.25;;;6.50;79.84
63552;BME280;49698;48.072;7.800;2023-02-02T12:18:31;100660.44;;;6.50;79.24
63552;BME280;49698;48.072;7.800;2023-02-02T12:21:05;100662.31;;;6.49;79.44
63552;BME280;49698;48.072;7.800;2023-02-02T12:23:41;100648.97;;;6.49;79.85
63552;BME280;49698;48.072;7.800;2023-02-02T12:26:18;100654.09;;;6.51;79.61
63552;BME280;49698;48.072;7.800;2023-02-02T12:28:58;100658.59;;;6.50;79.45
63552;BME280;49698;48.072;7.800;2023-02-02T12:31:38;100653.84;;;6.52;79.53
63552;BME280;49698;48.072;7.800;2023-02-02T12:34:15;100657.78;;;6.50;79.41
63552;BME280;49698;48.072;7.800;2023-02-02T12:36:53;100652.22;;;6.51;79.67
63552;BME280;49698;48.072;7.800;2023-02-02T12:39:31;100647.69;;;6.52;79.53
63552;BME280;49698;48.072;7.800;2023-02-02T12:42:15;100655.03;;;6.56;79.40
63552;BME280;49698;48.072;7.800;2023-02-02T12:44:54;100641.91;;;6.55;79.71
63552;BME280;49698;48.072;7.800;2023-02-02T12:47:28;100636.56;;;6.55;79.59
63552;BME280;49698;48.072;7.800;2023-02-02T12:50:07;100636.09;;;6.58;79.52
63552;BME280;49698;48.072;7.800;2023-02-02T12:52:56;100636.94;;;6.58;79.65
63552;BME280;49698;48.072;7.800;2023-02-02T12:55:34;100636.47;;;6.61;79.62
63552;BME280;49698;48.072;7.800;2023-02-02T12:58:14;100629.50;;;6.60;79.67
63552;BME280;49698;48.072;7.800;2023-02-02T13:03:59;100626.25;;;6.58;79.67
63552;BME280;49698;48.072;7.800;2023-02-02T13:06:50;100625.06;;;6.54;80.23
63552;BME280;49698;48.072;7.800;2023-02-02T13:09:25;100627.75;;;6.54;80.07
63552;BME280;49698;48.072;7.800;2023-02-02T13:11:58;100628.75;;;6.53;79.87
63552;BME280;49698;48.072;7.800;2023-02-02T13:14:30;100627.13;;;6.52;80.01
63552;BME280;49698;48.072;7.800;2023-02-02T13:17:04;100622.84;;;6.51;80.46
63552;BME280;49698;48.072;7.800;2023-02-02T13:19:39;100627.13;;;6.52;80.18
63552;BME280;49698;48.072;7.800;2023-02-02T13:22:12;100623.88;;;6.50;80.17
63552;BME280;49698;48.072;7.800;2023-02-02T13:24:45;100618.53;;;6.50;80.10
63552;BME280;49698;48.072;7.800;2023-02-02T13:27:17;100627.13;;;6.52;80.13
63552;BME280;49698;48.072;7.800;2023-02-02T13:29:49;100634.09;;;6.53;80.24
63552;BME280;49698;48.072;7.800;2023-02-02T13:32:23;100627.38;;;6.51;80.30